createdAt,value
2023-10-23T00:01:50.785Z,52.00
2023-10-23T00:04:53.732Z,52.01
2023-10-23T00:07:56.569Z,51.94
2023-10-23T00:10:59.364Z,51.89
2023-10-23T00:14:03.664Z,51.84
2023-10-23T00:17:06.644Z,51.87
2023-10-23T00:20:10.609Z,51.60
2023-10-23T00:23:13.369Z,51.56
2023-10-23T00:26:16.713Z,51.99
2023-10-23T00:29:21.092Z,51.46
2023-10-23T00:32:23.931Z,51.22
2023-10-23T00:35:26.783Z,51.22
2023-10-23T00:38:30.166Z,51.39
2023-10-23T00:41:32.964Z,51.16
2023-10-23T00:44:37.342Z,51.14
2023-10-23T00:47:40.324Z,51.46
2023-10-23T00:50:43.321Z,51.11
2023-10-23T00:53:46.399Z,51.33
2023-10-23T00:56:49.701Z,51.10
2023-10-23T00:59:54.042Z,51.45
2023-10-23T01:02:56.909Z,51.30
2023-10-23T01:06:00.058Z,51.03
2023-10-23T01:09:02.807Z,51.18
2023-10-23T01:12:06.010Z,51.27
2023-10-23T01:15:10.812Z,51.15
2023-10-23T01:18:13.673Z,51.24
2023-10-23T01:21:16.632Z,51.10
2023-10-23T01:24:21.188Z,51.32
2023-10-23T01:27:25.394Z,51.00
2023-10-23T01:30:29.651Z,51.15
2023-10-23T01:33:32.554Z,51.04
2023-10-23T01:36:36.881Z,51.26
2023-10-23T01:39:39.884Z,51.26
2023-10-23T01:42:44.676Z,51.20
2023-10-23T01:45:47.632Z,51.17
2023-10-23T01:48:50.563Z,51.01
2023-10-23T01:51:53.471Z,51.05
2023-10-23T01:54:56.521Z,51.01
2023-10-23T01:58:00.772Z,51.32
2023-10-23T02:01:03.816Z,51.06
2023-10-23T02:04:07.303Z,51.09
2023-10-23T02:07:10.289Z,51.16
2023-10-23T02:10:13.134Z,51.18
2023-10-23T02:13:17.326Z,51.01
2023-10-23T02:16:20.190Z,51.01
2023-10-23T02:19:23.109Z,51.08
2023-10-23T02:22:25.958Z,51.12
2023-10-23T02:25:28.795Z,51.03
2023-10-23T02:28:33.111Z,50.87
2023-10-23T02:31:37.724Z,51.21
2023-10-23T02:34:40.903Z,51.09
2023-10-23T02:37:43.775Z,51.09
2023-10-23T02:40:52.460Z,51.04
2023-10-23T02:43:56.595Z,51.04
2023-10-23T02:46:59.509Z,51.13
2023-10-23T02:50:02.429Z,51.04
2023-10-23T02:53:06.755Z,51.00
2023-10-23T02:56:12.079Z,51.19
2023-10-23T02:59:19.151Z,50.95
2023-10-23T03:02:21.955Z,50.87
2023-10-23T03:05:24.792Z,51.03
2023-10-23T03:08:27.848Z,51.06
2023-10-23T03:11:30.760Z,51.16
2023-10-23T03:14:35.016Z,51.10
2023-10-23T03:17:37.841Z,51.04
2023-10-23T03:20:41.336Z,50.98
2023-10-23T03:23:44.120Z,51.05
2023-10-23T03:26:47.037Z,51.03
2023-10-23T03:29:51.316Z,50.89
2023-10-23T03:32:54.169Z,50.91
2023-10-23T03:35:57.027Z,51.03
2023-10-23T03:38:59.930Z,50.91
2023-10-23T03:42:02.789Z,50.94
2023-10-23T03:45:07.539Z,51.03
2023-10-23T03:48:10.384Z,51.06
2023-10-23T03:51:13.187Z,51.11
2023-10-23T03:54:15.962Z,50.90
2023-10-23T03:57:18.766Z,50.95
2023-10-23T04:00:22.978Z,51.16
2023-10-23T04:03:25.896Z,51.06
2023-10-23T04:06:28.816Z,51.05
2023-10-23T04:09:31.715Z,51.13
2023-10-23T04:12:34.555Z,50.99
2023-10-23T04:15:38.855Z,50.99
2023-10-23T04:18:41.670Z,50.99
2023-10-23T04:21:44.545Z,51.04
2023-10-23T04:24:48.563Z,51.04
2023-10-23T04:27:51.579Z,51.06
2023-10-23T04:30:56.765Z,50.99
2023-10-23T04:33:59.701Z,50.99
2023-10-23T04:37:02.651Z,50.99
2023-10-23T04:40:05.947Z,50.84
2023-10-23T04:43:08.779Z,50.94
2023-10-23T04:46:13.065Z,50.84
2023-10-23T04:49:15.981Z,50.89
2023-10-23T04:52:19.362Z,50.89
2023-10-23T04:55:22.171Z,51.00
2023-10-23T04:58:25.047Z,50.91
2023-10-23T05:01:29.401Z,50.86
2023-10-23T05:04:32.637Z,51.01
2023-10-23T05:07:35.605Z,50.87
2023-10-23T05:10:38.460Z,50.94
2023-10-23T05:13:41.287Z,50.80
2023-10-23T05:16:46.535Z,50.97
2023-10-23T05:19:49.404Z,50.88
2023-10-23T05:22:52.230Z,50.99
2023-10-23T05:25:55.145Z,50.80
2023-10-23T05:28:57.964Z,50.98
2023-10-23T05:32:02.150Z,50.84
2023-10-23T05:35:05.338Z,50.88
2023-10-23T05:38:08.358Z,50.86
2023-10-23T05:41:11.292Z,50.94
2023-10-23T05:44:14.394Z,50.83
2023-10-23T05:47:18.590Z,50.89
2023-10-23T05:50:21.533Z,50.80
2023-10-23T05:53:24.372Z,50.87
2023-10-23T05:56:27.207Z,50.88
2023-10-23T05:59:30.218Z,50.75
2023-10-23T06:02:34.401Z,50.82
2023-10-23T06:05:41.144Z,50.83
2023-10-23T06:08:44.007Z,50.86
2023-10-23T06:11:46.872Z,50.78
2023-10-23T06:14:49.681Z,50.92
2023-10-23T06:17:53.884Z,50.80
2023-10-23T06:20:58.881Z,50.58
2023-10-23T06:24:01.935Z,50.91
2023-10-23T06:27:05.123Z,50.99
2023-10-23T06:30:08.441Z,51.02
2023-10-23T06:33:12.651Z,50.77
2023-10-23T06:36:15.436Z,50.63
2023-10-23T06:39:18.219Z,50.93
2023-10-23T06:42:21.137Z,50.79
2023-10-23T06:45:25.967Z,50.87
2023-10-23T06:48:41.072Z,50.90
2023-10-23T06:51:44.000Z,50.86
2023-10-23T06:54:46.887Z,50.78
2023-10-23T06:57:49.661Z,50.70
2023-10-23T07:00:52.509Z,50.88
2023-10-23T07:03:56.824Z,50.84
2023-10-23T07:07:08.268Z,50.79
2023-10-23T07:10:21.926Z,50.74
2023-10-23T07:13:24.693Z,50.72
2023-10-23T07:16:27.945Z,50.79
2023-10-23T07:19:32.367Z,50.73
2023-10-23T07:22:35.256Z,50.71
2023-10-23T07:25:38.102Z,50.67
2023-10-23T07:28:40.915Z,50.76
2023-10-23T07:31:43.835Z,50.83
2023-10-23T07:34:48.065Z,50.78
2023-10-23T07:37:50.912Z,50.75
2023-10-23T07:40:53.777Z,50.66
2023-10-23T07:43:56.529Z,50.68
2023-10-23T07:46:59.403Z,50.70
2023-10-23T07:50:05.967Z,50.69
2023-10-23T07:53:08.829Z,50.58
2023-10-23T07:56:13.777Z,50.60
2023-10-23T07:59:18.735Z,50.55
2023-10-23T08:02:21.703Z,50.56
2023-10-23T08:05:25.993Z,50.81
2023-10-23T08:08:28.848Z,50.63
2023-10-23T08:11:31.722Z,50.61
2023-10-23T08:14:34.562Z,50.71
2023-10-23T08:17:42.450Z,50.62
2023-10-23T08:20:47.147Z,50.76
2023-10-23T08:23:54.182Z,50.77
2023-10-23T08:26:57.266Z,50.76
2023-10-23T08:30:00.143Z,50.62
2023-10-23T08:33:03.103Z,50.58
2023-10-23T08:36:07.659Z,50.80
2023-10-23T08:39:10.480Z,50.50
2023-10-23T08:42:13.303Z,50.50
2023-10-23T08:45:16.964Z,50.45
2023-10-23T08:48:19.783Z,50.76
2023-10-23T08:51:24.055Z,50.49
2023-10-23T08:54:28.142Z,50.60
2023-10-23T08:57:31.362Z,50.67
2023-10-23T09:00:34.881Z,50.50
2023-10-23T09:04:02.820Z,50.62
2023-10-23T09:07:02.132Z,50.56
2023-10-23T09:10:05.250Z,50.53
2023-10-23T09:13:08.077Z,50.45
2023-10-23T09:16:11.539Z,50.45
2023-10-23T09:19:24.768Z,50.46
2023-10-23T09:22:31.202Z,50.52
2023-10-23T09:25:34.042Z,50.35
2023-10-23T09:28:36.874Z,50.50
2023-10-23T09:31:42.076Z,50.45
2023-10-23T09:34:45.892Z,50.40
2023-10-23T09:37:50.196Z,50.31
2023-10-23T09:40:53.034Z,50.40
2023-10-23T09:43:57.304Z,50.36
2023-10-23T09:47:00.890Z,50.54
2023-10-23T09:50:05.113Z,50.41
2023-10-23T09:53:11.540Z,50.31
2023-10-23T09:56:14.946Z,50.35
2023-10-23T09:59:18.763Z,50.42
2023-10-23T10:02:26.105Z,50.22
2023-10-23T10:05:32.699Z,50.22
2023-10-23T10:08:39.613Z,50.47
2023-10-23T10:11:44.449Z,50.37
2023-10-23T10:14:48.392Z,50.42
2023-10-23T10:17:51.719Z,50.33
2023-10-23T10:20:58.086Z,50.38
2023-10-23T10:24:04.920Z,50.44
2023-10-23T10:27:08.178Z,50.27
2023-10-23T10:30:31.911Z,50.38
2023-10-23T10:34:27.601Z,50.10
2023-10-23T10:37:01.119Z,50.07
2023-10-23T10:40:07.512Z,50.16
2023-10-23T10:43:10.747Z,50.29
2023-10-23T10:46:19.112Z,50.27
2023-10-23T10:49:22.006Z,49.96
2023-10-23T10:52:29.719Z,50.27
2023-10-23T10:55:34.547Z,50.21
2023-10-23T10:58:38.791Z,50.16
2023-10-23T11:01:41.728Z,50.33
2023-10-23T11:04:44.742Z,50.19
2023-10-23T11:07:48.481Z,50.17
2023-10-23T11:10:52.671Z,50.08
2023-10-23T11:13:57.501Z,50.16
2023-10-23T11:17:00.625Z,49.99
2023-10-23T11:20:07.569Z,50.08
2023-10-23T11:23:10.501Z,49.93
2023-10-23T11:26:14.769Z,50.09
2023-10-23T11:29:18.306Z,50.13
2023-10-23T11:32:21.038Z,50.14
2023-10-23T11:35:23.973Z,49.94
2023-10-23T11:38:28.650Z,50.11
2023-10-23T11:41:34.283Z,49.98
2023-10-23T11:44:37.106Z,49.89
2023-10-23T11:47:40.160Z,50.16
2023-10-23T11:50:43.776Z,50.35
2023-10-23T11:53:48.188Z,50.09
2023-10-23T11:56:52.834Z,50.26
2023-10-23T11:59:58.275Z,50.09
2023-10-23T12:03:01.190Z,50.29
2023-10-23T12:06:04.842Z,50.25
2023-10-23T12:09:08.660Z,50.27
2023-10-23T12:12:13.769Z,50.55
2023-10-23T12:15:17.437Z,50.29
2023-10-23T12:18:20.328Z,50.65
2023-10-23T12:21:23.187Z,50.25
2023-10-23T12:24:25.961Z,50.17
2023-10-23T12:27:30.156Z,50.63
2023-10-23T12:30:33.074Z,50.37
2023-10-23T12:33:38.461Z,50.21
2023-10-23T12:36:41.511Z,50.30
2023-10-23T12:39:44.296Z,50.21
2023-10-23T12:42:48.531Z,50.14
2023-10-23T12:45:51.536Z,49.99
2023-10-23T12:48:54.396Z,48.80
2023-10-23T12:51:57.210Z,47.85
2023-10-23T12:55:00.293Z,48.92
2023-10-23T12:58:05.221Z,49.69
2023-10-23T13:01:08.148Z,49.48
2023-10-23T13:04:11.084Z,49.72
2023-10-23T13:07:14.020Z,49.76
2023-10-23T13:10:17.422Z,50.02
2023-10-23T13:13:21.732Z,49.92
2023-10-23T13:16:24.642Z,49.99
2023-10-23T13:19:30.610Z,49.96
2023-10-23T13:22:35.603Z,50.08
2023-10-23T13:25:41.935Z,50.16
2023-10-23T13:28:48.792Z,50.13
2023-10-23T13:31:53.262Z,49.87
2023-10-23T13:34:56.180Z,50.02
2023-10-23T13:37:59.364Z,49.93
2023-10-23T13:41:03.717Z,49.99
2023-10-23T13:44:08.073Z,49.98
2023-10-23T13:47:11.028Z,50.14
2023-10-23T13:50:13.900Z,50.14
2023-10-23T13:53:16.720Z,50.11
2023-10-23T13:56:20.604Z,50.13
2023-10-23T13:59:24.776Z,50.21
2023-10-23T14:02:27.752Z,49.90
2023-10-23T14:05:30.697Z,50.03
2023-10-23T14:09:40.824Z,50.20
2023-10-23T14:12:00.082Z,50.14
2023-10-23T14:15:08.767Z,50.16
2023-10-23T14:18:11.892Z,50.25
2023-10-23T14:21:15.906Z,49.92
2023-10-23T14:24:21.328Z,50.08
2023-10-23T14:27:24.215Z,50.02
2023-10-23T14:30:28.427Z,50.13
2023-10-23T14:33:31.225Z,49.78
2023-10-23T14:36:34.034Z,49.96
2023-10-23T14:39:36.893Z,49.94
2023-10-23T14:42:40.916Z,50.07
2023-10-23T14:45:45.128Z,50.21
2023-10-23T14:48:48.180Z,49.90
2023-10-23T14:51:51.920Z,49.96
2023-10-23T14:54:55.193Z,49.98
2023-10-23T14:57:58.066Z,50.06
2023-10-23T15:01:02.381Z,49.98
2023-10-23T15:04:05.539Z,49.94
2023-10-23T15:07:08.450Z,50.01
2023-10-23T15:10:11.569Z,50.01
2023-10-23T15:13:14.470Z,50.06
2023-10-23T15:16:18.912Z,50.00
2023-10-23T15:19:21.850Z,50.11
2023-10-23T15:22:24.792Z,50.20
2023-10-23T15:25:27.846Z,50.05
2023-10-23T15:28:31.732Z,50.21
2023-10-23T15:31:37.029Z,49.96
2023-10-23T15:34:40.034Z,50.15
2023-10-23T15:37:44.054Z,49.95
2023-10-23T15:40:46.896Z,50.06
2023-10-23T15:43:52.514Z,50.05
2023-10-23T15:46:56.781Z,50.04
2023-10-23T15:50:00.016Z,49.99
2023-10-23T15:53:03.841Z,50.07
2023-10-23T15:56:06.995Z,49.98
2023-10-23T15:59:09.862Z,50.13
2023-10-23T16:02:14.765Z,50.11
2023-10-23T16:05:17.724Z,50.36
2023-10-23T16:08:20.568Z,50.38
2023-10-23T16:11:23.358Z,50.27
2023-10-23T16:14:26.661Z,50.08
2023-10-23T16:17:30.825Z,50.10
2023-10-23T16:20:34.706Z,50.15
2023-10-23T16:23:37.504Z,50.58
2023-10-23T16:26:40.374Z,50.41
2023-10-23T16:29:43.157Z,50.48
2023-10-23T16:32:47.398Z,50.66
2023-10-23T16:35:52.978Z,50.31
2023-10-23T16:38:56.201Z,50.39
2023-10-23T16:41:59.045Z,50.83
2023-10-23T16:45:02.422Z,50.09
2023-10-23T16:48:07.072Z,50.19
2023-10-23T16:51:09.931Z,50.27
2023-10-23T16:54:14.075Z,50.06
2023-10-23T16:57:16.853Z,50.31
2023-10-23T17:00:19.675Z,50.36
2023-10-23T17:03:26.222Z,50.29
2023-10-23T17:06:29.238Z,50.64
2023-10-23T17:09:32.319Z,50.52
2023-10-23T17:12:35.381Z,50.46
2023-10-23T17:15:42.567Z,50.22
2023-10-23T17:18:47.472Z,50.25
2023-10-23T17:21:50.306Z,50.49
2023-10-23T17:24:53.109Z,50.18
2023-10-23T17:27:55.984Z,50.35
2023-10-23T17:31:00.475Z,50.19
2023-10-23T17:34:05.136Z,50.33
2023-10-23T17:37:08.114Z,50.24
2023-10-23T17:40:12.580Z,50.43
2023-10-23T17:46:37.261Z,50.24
2023-10-23T17:49:41.801Z,50.64
2023-10-23T17:52:45.079Z,50.71
2023-10-23T17:55:48.073Z,50.47
2023-10-23T17:58:55.546Z,50.62
2023-10-23T18:01:58.429Z,50.46
2023-10-23T18:05:02.748Z,51.14
2023-10-23T18:08:05.744Z,50.39
2023-10-23T18:11:09.634Z,50.40
2023-10-23T18:14:13.434Z,50.67
2023-10-23T18:17:16.325Z,50.47
2023-10-23T18:20:20.616Z,50.82
2023-10-23T18:23:23.517Z,51.12
2023-10-23T18:26:26.716Z,50.70
2023-10-23T18:29:30.810Z,50.50
2023-10-23T18:32:33.644Z,50.49
2023-10-23T18:35:38.369Z,50.61
2023-10-23T18:38:42.591Z,50.72
2023-10-23T18:41:45.529Z,50.33
2023-10-23T18:44:48.351Z,50.74
2023-10-23T18:47:51.269Z,50.72
2023-10-23T18:51:01.997Z,50.67
2023-10-23T18:54:04.998Z,51.04
2023-10-23T18:57:07.809Z,50.91
2023-10-23T19:00:11.162Z,50.61
2023-10-23T19:03:14.050Z,50.75
2023-10-23T19:06:18.714Z,50.81
2023-10-23T19:09:21.520Z,50.76
2023-10-23T19:12:24.912Z,50.78
2023-10-23T19:15:27.795Z,50.57
2023-10-23T19:18:31.619Z,50.71
2023-10-23T19:21:35.974Z,50.70
2023-10-23T19:24:38.987Z,50.65
2023-10-23T19:27:42.020Z,50.90
2023-10-23T19:30:47.851Z,51.06
2023-10-23T19:33:51.021Z,50.61
2023-10-23T19:36:55.565Z,51.06
2023-10-23T19:39:59.368Z,50.95
2023-10-23T19:43:08.331Z,50.86
2023-10-23T19:46:12.066Z,50.83
2023-10-23T19:49:15.270Z,50.79
2023-10-23T19:52:20.178Z,50.70
2023-10-23T19:55:42.679Z,50.87
2023-10-23T19:58:46.047Z,50.68
2023-10-23T20:01:48.939Z,50.83
2023-10-23T20:04:51.907Z,50.85
2023-10-23T20:07:56.256Z,50.84
2023-10-23T20:10:59.210Z,50.82
2023-10-23T20:14:02.137Z,50.82
2023-10-23T20:17:05.281Z,50.58
2023-10-23T20:20:09.901Z,50.53
2023-10-23T20:23:14.614Z,50.65
2023-10-23T20:26:17.662Z,50.66
2023-10-23T20:29:20.584Z,50.58
2023-10-23T20:32:23.425Z,50.76
2023-10-23T20:35:26.393Z,50.98
2023-10-23T20:38:30.624Z,50.63
2023-10-23T20:41:33.537Z,50.87
2023-10-23T20:44:36.282Z,50.51
2023-10-23T20:47:39.373Z,51.13
2023-10-23T20:50:42.264Z,51.04
2023-10-23T20:53:47.008Z,50.79
2023-10-23T20:56:49.829Z,50.62
2023-10-23T20:59:52.617Z,51.29
2023-10-23T21:02:55.539Z,50.67
2023-10-23T21:06:00.418Z,50.88
2023-10-23T21:09:05.944Z,51.05
2023-10-23T21:12:08.986Z,51.50
2023-10-23T21:15:12.045Z,51.14
2023-10-23T21:18:14.841Z,50.96
2023-10-23T21:21:17.747Z,50.64
2023-10-23T21:24:21.914Z,50.74
2023-10-23T21:27:24.864Z,51.40
2023-10-23T21:30:27.659Z,51.02
2023-10-23T21:33:30.657Z,50.88
2023-10-23T21:36:33.454Z,50.84
2023-10-23T21:39:37.587Z,50.78
2023-10-23T21:42:41.254Z,50.78
2023-10-23T21:45:44.254Z,51.02
2023-10-23T21:48:47.011Z,51.52
2023-10-23T21:51:50.034Z,51.09
2023-10-23T21:54:54.633Z,50.87
2023-10-23T21:58:06.204Z,50.90
2023-10-23T22:01:09.640Z,51.46
2023-10-23T22:04:12.921Z,50.90
2023-10-23T22:07:16.085Z,50.90
2023-10-23T22:10:20.902Z,50.88
2023-10-23T22:13:24.058Z,50.90
2023-10-23T22:16:26.950Z,50.92
2023-10-23T22:19:32.953Z,50.93
2023-10-23T22:22:35.941Z,50.89
2023-10-23T22:25:40.393Z,51.02
2023-10-23T22:28:43.231Z,50.92
2023-10-23T22:31:46.461Z,51.01
2023-10-23T22:34:49.390Z,51.11
2023-10-23T22:38:06.532Z,50.87
2023-10-23T22:41:13.302Z,50.87
2023-10-23T22:44:16.057Z,51.39
2023-10-23T22:47:18.981Z,51.05
2023-10-23T22:50:22.298Z,51.31
2023-10-23T22:53:25.638Z,51.06
2023-10-23T22:56:32.596Z,51.10
2023-10-23T22:59:35.940Z,50.92
2023-10-23T23:02:39.156Z,50.99
2023-10-23T23:05:42.672Z,51.06
2023-10-23T23:08:47.535Z,51.04
2023-10-23T23:11:52.459Z,51.24
2023-10-23T23:14:55.655Z,51.35
2023-10-23T23:18:00.422Z,51.17
2023-10-23T23:21:05.181Z,51.05
2023-10-23T23:24:08.483Z,51.38
2023-10-23T23:27:12.682Z,51.25
2023-10-23T23:30:16.585Z,51.06
2023-10-23T23:33:19.450Z,50.97
2023-10-23T23:36:22.254Z,51.13
2023-10-23T23:39:25.043Z,50.98
2023-10-23T23:42:29.413Z,51.07
2023-10-23T23:45:32.260Z,51.48
2023-10-23T23:48:35.136Z,51.14
2023-10-23T23:51:38.018Z,50.90
2023-10-23T23:54:40.904Z,51.00
2023-10-23T23:57:45.165Z,51.04
